Time;durP1;ratioP1;P1;durP2;ratioP2;P2;SDS_P1;SDS_P2;PMS_P1;PMS_P2;Temp;Humidity;BMP_temperature;BMP_pressure;BME280_temperature;BME280_humidity;BME280_pressure;Samples;Min_cycle;Max_cycle;Signal;HPM_P1;HPM_P2
2021/08/30 00:30:22;;;;;;;20.90;11.18;;;17.10;99.90;;;15.08;100.00;101487.13;2570627;30;138099;-39
2021/08/30 00:32:49;;;;;;;20.88;12.70;;;16.40;99.90;;;15.07;100.00;101480.78;2569284;30;136954;-39
2021/08/30 00:35:17;;;;;;;19.73;12.38;;;16.40;99.90;;;15.10;100.00;101488.56;2569610;30;138052;-39
2021/08/30 00:37:47;;;;;;;18.98;11.93;;;16.40;99.90;;;15.13;100.00;101487.28;2568127;30;137912;-39
2021/08/30 00:40:15;;;;;;;20.55;12.85;;;16.50;99.90;;;15.10;100.00;101488.56;2569081;30;138321;-39
2021/08/30 00:42:45;;;;;;;19.08;12.13;;;16.40;99.90;;;15.06;100.00;101481.03;2569320;30;137533;-39
2021/08/30 00:45:14;;;;;;;21.77;13.20;;;16.40;99.90;;;15.10;100.00;101487.75;2568216;30;136761;-39
2021/08/30 00:47:43;;;;;;;20.98;13.57;;;16.40;99.90;;;15.14;100.00;101488.97;2569212;30;136808;-39
2021/08/30 00:50:17;;;;;;;22.58;12.45;;;16.50;99.90;;;15.15;100.00;101493.41;2566892;30;137192;-39
2021/08/30 00:52:45;;;;;;;20.80;13.02;;;16.40;99.90;;;15.14;100.00;101493.63;2570074;30;137801;-39
2021/08/30 00:55:14;;;;;;;22.88;12.30;;;16.50;99.90;;;15.20;100.00;101495.47;2569214;30;137350;-38
2021/08/30 00:57:42;;;;;;;20.63;12.77;;;16.50;99.90;;;15.15;100.00;101481.56;2568289;30;139431;-39
2021/08/30 01:00:11;;;;;;;;;;;16.50;99.90;;;15.15;100.00;101495.31;2567082;30;138420;-39
2021/08/30 01:02:41;;;;;;;17.73;11.63;;;16.50;99.90;;;15.17;100.00;101493.19;2569428;30;138201;-38
2021/08/30 01:05:13;;;;;;;20.92;11.70;;;16.50;99.90;;;15.17;100.00;101483.00;2568465;30;138244;-37
2021/08/30 01:08:11;;;;;;;21.17;12.65;;;16.50;99.90;;;15.09;100.00;101489.63;2568838;30;138531;-39
2021/08/30 01:11:08;;;;;;;18.85;11.77;;;16.40;99.90;;;15.16;100.00;101494.25;2565628;30;137329;-38
2021/08/30 01:14:02;;;;;;;19.48;12.07;;;16.50;99.90;;;15.10;100.00;101496.00;2568529;30;137568;-38
2021/08/30 01:16:32;;;;;;;18.88;11.93;;;16.40;99.90;;;15.05;100.00;101493.09;2568972;30;137597;-38
2021/08/30 01:19:03;;;;;;;21.02;12.68;;;16.40;99.90;;;15.06;100.00;101490.09;2569905;30;139548;-39
2021/08/30 01:21:37;;;;;;;21.25;12.05;;;16.40;99.90;;;15.03;100.00;101484.22;2569984;30;137450;-39
2021/08/30 01:24:11;;;;;;;18.00;12.18;;;16.30;99.90;;;15.07;100.00;101493.69;2568905;30;136882;-39
2021/08/30 01:26:51;;;;;;;20.58;12.57;;;16.40;99.90;;;15.07;100.00;101497.28;2566285;30;137894;-39
2021/08/30 01:29:55;;;;;;;21.88;12.40;;;16.40;99.90;;;15.13;100.00;101490.03;2568331;30;139201;-38
2021/08/30 01:32:40;;;;;;;20.65;13.18;;;16.40;99.90;;;15.07;100.00;101491.78;2568996;30;138105;-39
2021/08/30 01:35:19;;;;;;;25.83;13.70;;;16.40;99.90;;;15.07;100.00;101493.69;2568821;30;137344;-39
2021/08/30 01:37:51;;;;;;;23.25;13.23;;;16.40;99.90;;;15.05;100.00;101493.91;2570439;30;137591;-39
2021/08/30 01:40:23;;;;;;;22.10;13.70;;;16.40;99.90;;;15.04;100.00;101496.91;2568522;30;138184;-39
2021/08/30 01:42:54;;;;;;;22.73;13.70;;;16.40;99.90;;;15.01;100.00;101489.94;2569275;30;137034;-39
2021/08/30 01:45:26;;;;;;;26.40;14.52;;;16.40;99.90;;;15.03;100.00;101495.22;2568122;30;137917;-39
2021/08/30 01:47:59;;;;;;;26.52;13.90;;;16.40;99.90;;;14.97;100.00;101494.22;2568143;30;136814;-39
2021/08/30 01:50:29;;;;;;;21.85;13.60;;;16.40;99.90;;;14.99;100.00;101494.00;2570939;30;138610;-39
2021/08/30 01:53:01;;;;;;;20.73;13.68;;;16.30;99.90;;;15.00;100.00;101499.25;2570137;30;137202;-39
2021/08/30 01:55:45;;;;;;;21.35;14.18;;;16.40;99.90;;;14.97;100.00;101502.44;2570840;30;138138;-39
2021/08/30 02:00:47;;;;;;;23.80;15.00;;;16.20;99.90;;;14.92;100.00;101496.81;2570140;30;138383;-39
2021/08/30 02:03:26;;;;;;;24.80;15.02;;;16.20;99.90;;;14.91;100.00;101504.19;2569836;30;137621;-39
2021/08/30 02:06:05;;;;;;;25.38;16.48;;;16.20;99.90;;;14.94;100.00;101494.66;2567617;30;138241;-39
2021/08/30 02:08:34;;;;;;;25.38;16.30;;;16.30;99.90;;;14.89;100.00;101502.75;2571117;30;136965;-39
2021/08/30 02:11:09;;;;;;;24.02;14.88;;;16.20;99.90;;;14.90;100.00;101502.50;2570151;30;137174;-39
2021/08/30 02:13:37;;;;;;;24.85;15.23;;;16.30;99.90;;;14.93;100.00;101501.22;2568632;30;136962;-39
2021/08/30 02:16:05;;;;;;;;;;;16.20;99.90;;;15.01;100.00;101505.59;2567347;30;139649;-39
2021/08/30 02:18:43;;;;;;;22.50;14.80;;;16.30;99.90;;;14.93;100.00;101498.47;2568779;30;137056;-39
2021/08/30 02:21:32;;;;;;;22.95;15.88;;;16.30;99.90;;;14.92;100.00;101508.63;2570447;30;137606;-39
2021/08/30 02:24:37;;;;;;;23.70;14.90;;;16.30;99.90;;;14.94;100.00;101514.72;2569389;30;137585;-39
2021/08/30 02:27:34;;;;;;;23.60;14.52;;;16.20;99.90;;;14.99;100.00;101497.56;2568834;30;138348;-38
2021/08/30 02:30:07;;;;;;;23.58;14.40;;;16.30;99.90;;;14.94;100.00;101505.66;2570214;30;138348;-38
2021/08/30 02:32:37;;;;;;;21.17;14.10;;;16.30;99.90;;;14.92;100.00;101500.38;2569922;30;138205;-40
2021/08/30 02:35:08;;;;;;;24.55;14.52;;;16.30;99.90;;;14.91;100.00;101501.44;2568245;30;137488;-39
2021/08/30 02:37:38;;;;;;;21.90;14.23;;;16.20;99.90;;;14.95;100.00;101501.84;2569919;30;138522;-39
2021/08/30 02:40:10;;;;;;;24.67;14.32;;;16.20;99.90;;;14.96;100.00;101504.34;2568857;30;137772;-39
2021/08/30 02:42:41;;;;;;;23.33;14.30;;;16.30;99.90;;;14.91;100.00;101504.19;2570423;30;138042;-39
2021/08/30 02:45:11;;;;;;;20.17;13.77;;;16.30;99.90;;;14.89;100.00;101503.56;2569658;30;137744;-39
2021/08/30 02:47:40;;;;;;;26.38;13.77;;;16.20;99.90;;;14.90;100.00;101504.44;2568747;30;138310;-39
2021/08/30 02:50:10;;;;;;;24.85;14.60;;;16.20;99.90;;;14.93;100.00;101506.72;2570560;30;137363;-39
2021/08/30 02:52:39;;;;;;;24.77;13.95;;;16.30;99.90;;;14.88;100.00;101499.16;2566487;30;140723;-39
2021/08/30 02:55:09;;;;;;;25.60;14.85;;;16.30;99.90;;;14.84;100.00;101492.44;2570306;30;137012;-39
2021/08/30 02:57:39;;;;;;;23.15;14.30;;;16.20;99.90;;;14.82;100.00;101500.06;2567941;30;137804;-39
2021/08/30 03:00:09;;;;;;;25.40;14.63;;;16.20;99.90;;;14.85;100.00;101506.97;2567659;30;136952;-41
2021/08/30 03:02:38;;;;;;;24.77;13.65;;;16.20;99.90;;;14.87;100.00;101507.63;2568316;30;138278;-38
2021/08/30 03:05:06;;;;;;;25.05;14.82;;;16.20;99.90;;;14.92;100.00;101511.38;2569147;30;137597;-38
2021/08/30 03:07:36;;;;;;;23.95;14.43;;;16.20;99.90;;;14.88;100.00;101503.81;2570916;30;138309;-39
2021/08/30 03:10:06;;;;;;;20.80;13.55;;;16.20;99.90;;;14.89;100.00;101500.00;2566027;30;137521;-39
2021/08/30 03:12:40;;;;;;;22.33;12.60;;;16.20;99.90;;;14.96;100.00;101500.78;2568055;30;139251;-39
2021/08/30 03:15:16;;;;;;;21.95;13.50;;;16.30;99.90;;;14.93;100.00;101501.22;2569614;30;138172;-39
2021/08/30 03:17:46;;;;;;;20.52;11.82;;;16.30;99.90;;;14.90;100.00;101510.75;2571408;30;138472;-39
2021/08/30 03:20:22;;;;;;;22.50;13.27;;;16.20;99.90;;;14.82;100.00;101502.81;2568975;30;138498;-39
2021/08/30 03:22:52;;;;;;;20.42;12.70;;;16.20;99.90;;;14.81;100.00;101493.69;2569948;30;137821;-38
2021/08/30 03:25:26;;;;;;;23.38;13.50;;;16.20;99.90;;;14.81;100.00;101496.44;2568581;30;137423;-38
2021/08/30 03:27:57;;;;;;;21.33;13.57;;;16.10;99.90;;;14.75;100.00;101494.59;2569607;30;138259;-39
2021/08/30 03:30:26;;;;;;;22.50;13.40;;;16.10;99.90;;;14.77;100.00;101494.41;2567709;30;136948;-39
2021/08/30 03:32:55;;;;;;;22.02;13.13;;;16.10;99.90;;;14.78;100.00;101499.66;2570125;30;136809;-39
2021/08/30 03:35:24;;;;;;;20.08;12.57;;;16.10;99.90;;;14.82;100.00;101511.88;2566425;30;136974;-39
2021/08/30 03:37:52;;;;;;;22.92;13.38;;;16.10;99.90;;;14.78;100.00;101507.88;2569341;30;138372;-39
2021/08/30 03:40:21;;;;;;;19.67;13.07;;;16.10;99.90;;;14.81;100.00;101504.69;2569839;30;137553;-39
2021/08/30 03:42:51;;;;;;;21.35;12.88;;;16.10;99.90;;;14.73;100.00;101504.16;2569069;30;138702;-41
2021/08/30 03:45:20;;;;;;;22.50;13.52;;;16.10;99.90;;;14.68;100.00;101494.63;2569242;30;138261;-39
2021/08/30 03:47:48;;;;;;;21.25;13.55;;;16.00;99.90;;;14.72;100.00;101497.81;2568791;30;138670;-39
2021/08/30 03:50:16;;;;;;;21.27;13.45;;;16.10;99.90;;;14.69;100.00;101500.97;2568963;30;136768;-39
2021/08/30 03:52:44;;;;;;;24.92;14.23;;;16.00;99.90;;;14.67;100.00;101492.94;2568902;30;138344;-39
2021/08/30 03:55:12;;;;;;;19.95;13.23;;;16.00;99.90;;;14.73;100.00;101499.50;2566286;30;136859;-39
2021/08/30 03:57:40;;;;;;;24.98;14.13;;;16.10;99.90;;;14.78;100.00;101505.16;2568573;30;139072;-39
2021/08/30 04:00:10;;;;;;;23.08;14.02;;;16.10;99.90;;;14.79;100.00;101498.59;2569245;30;137762;-39
2021/08/30 04:02:41;;;;;;;23.55;14.27;;;16.10;99.90;;;14.79;100.00;101495.84;2568509;30;138290;-39
2021/08/30 04:05:13;;;;;;;22.90;14.57;;;16.10;99.90;;;14.78;100.00;101505.16;2567175;30;138428;-38
2021/08/30 04:07:40;;;;;;;22.63;14.13;;;16.10;99.90;;;14.74;100.00;101503.09;2568582;30;137465;-39
2021/08/30 04:10:08;;;;;;;;;;;16.10;99.90;;;14.71;100.00;101498.88;2569741;30;137512;-39
2021/08/30 04:12:40;;;;;;;24.98;13.32;;;16.10;99.90;;;14.71;100.00;101498.88;2566169;30;138498;-39
2021/08/30 04:15:09;;;;;;;20.65;13.18;;;16.10;99.90;;;14.70;100.00;101493.56;2569240;30;137324;-39
2021/08/30 04:17:37;;;;;;;22.35;14.07;;;16.10;99.90;;;14.77;100.00;101499.88;2567820;30;137236;-39
2021/08/30 04:20:05;;;;;;;20.98;14.38;;;16.10;99.90;;;14.76;100.00;101501.78;2570186;30;136745;-39
2021/08/30 04:22:35;;;;;;;21.23;13.90;;;16.10;99.90;;;14.75;100.00;101502.84;2567853;30;138069;-39
2021/08/30 04:25:06;;;;;;;25.52;14.35;;;16.10;99.90;;;14.79;100.00;101506.81;2568353;30;138386;-39
2021/08/30 04:27:34;;;;;;;21.30;13.85;;;16.10;99.90;;;14.74;100.00;101497.59;2570311;30;138557;-39
2021/08/30 04:30:02;;;;;;;24.48;14.32;;;16.10;99.90;;;14.73;100.00;101502.22;2570154;30;137501;-40
2021/08/30 04:32:35;;;;;;;24.00;15.13;;;16.10;99.90;;;14.80;100.00;101504.94;2565997;30;138853;-39
2021/08/30 04:35:05;;;;;;;22.15;14.57;;;16.10;99.90;;;14.80;100.00;101511.25;2569119;30;138394;-39
2021/08/30 04:37:34;;;;;;;23.35;15.52;;;16.10;99.90;;;14.79;100.00;101504.06;2570088;30;137789;-39
2021/08/30 04:40:01;;;;;;;22.70;15.02;;;16.10;99.90;;;14.78;100.00;101513.38;2568719;30;137839;-39
2021/08/30 04:42:29;;;;;;;22.35;15.80;;;16.10;99.90;;;14.78;100.00;101507.06;2566156;30;139336;-39
2021/08/30 04:44:56;;;;;;;21.55;14.45;;;16.10;99.90;;;14.75;100.00;101505.59;2568254;30;137690;-39
2021/08/30 04:47:24;;;;;;;25.13;15.95;;;16.10;99.90;;;14.78;100.00;101513.38;2566586;30;138844;-39
2021/08/30 04:49:51;;;;;;;20.90;13.55;;;16.10;99.90;;;14.77;100.00;101516.38;2569040;30;137250;-39
2021/08/30 04:52:19;;;;;;;27.83;16.15;;;16.10;99.90;;;14.76;100.00;101517.44;2569037;30;137933;-39
2021/08/30 04:54:46;;;;;;;25.10;15.32;;;16.10;99.90;;;14.80;100.00;101521.41;2565266;30;138489;-39
2021/08/30 04:57:14;;;;;;;25.83;16.10;;;16.10;99.90;;;14.80;100.00;101524.16;2570681;30;137267;-39
2021/08/30 04:59:41;;;;;;;23.85;15.32;;;16.10;99.90;;;14.76;100.00;101518.25;2568639;30;137161;-39
2021/08/30 05:02:09;;;;;;;22.92;15.48;;;16.10;99.90;;;14.88;100.00;101523.03;2569809;30;138474;-39
2021/08/30 05:04:37;;;;;;;22.67;14.23;;;16.20;99.90;;;14.85;100.00;101517.97;2568069;30;136978;-39
2021/08/30 05:07:04;;;;;;;21.63;14.30;;;16.20;99.90;;;14.81;100.00;101521.16;2570394;30;137820;-39
2021/08/30 05:09:32;;;;;;;20.80;13.82;;;16.10;99.90;;;14.81;100.00;101523.91;2567402;30;137686;-39
2021/08/30 05:12:00;;;;;;;25.08;15.63;;;16.20;99.90;;;14.84;100.00;101525.38;2568131;30;139238;-39
2021/08/30 05:14:28;;;;;;;;;;;16.20;99.90;;;14.87;100.00;101526.84;2568287;30;137115;-39
2021/08/30 05:16:55;;;;;;;23.80;14.55;;;16.20;99.90;;;14.89;100.00;101525.56;2566007;30;139316;-39
2021/08/30 05:19:23;;;;;;;21.38;13.63;;;16.20;99.90;;;14.86;100.00;101525.19;2567766;30;136911;-40
2021/08/30 05:21:51;;;;;;;21.05;13.52;;;16.20;99.90;;;14.86;100.00;101533.41;2565224;30;138561;-39
2021/08/30 05:24:18;;;;;;;20.27;13.45;;;16.20;99.90;;;14.87;100.00;101533.19;2568377;30;137403;-38
2021/08/30 05:26:46;;;;;;;20.00;13.27;;;16.20;99.90;;;14.94;100.00;101535.88;2568530;30;139399;-39
2021/08/30 05:29:13;;;;;;;23.58;14.40;;;16.20;99.90;;;15.04;100.00;101535.38;2568941;30;136836;-39
2021/08/30 05:31:42;;;;;;;22.10;14.30;;;16.30;99.90;;;15.03;100.00;101534.50;2569777;30;139058;-39
2021/08/30 05:34:10;;;;;;;23.42;13.63;;;16.30;99.90;;;15.10;99.84;101535.28;2568608;30;136922;-39
2021/08/30 05:36:37;;;;;;;22.63;14.77;;;16.30;99.90;;;15.07;99.48;101535.75;2569079;30;138469;-39
2021/08/30 05:39:05;;;;;;;23.13;14.63;;;16.40;99.90;;;15.12;99.73;101543.31;2569015;30;136931;-39
2021/08/30 05:41:32;;;;;;;23.05;14.38;;;16.40;99.90;;;15.09;99.50;101538.28;2569189;30;138613;-39
2021/08/30 05:44:00;;;;;;;23.38;15.55;;;16.40;99.90;;;15.06;99.65;101531.31;2568886;30;137608;-39
2021/08/30 05:46:28;;;;;;;23.45;14.95;;;16.40;99.90;;;15.05;99.94;101532.38;2567837;30;137917;-39
2021/08/30 05:48:55;;;;;;;22.38;14.23;;;16.30;99.90;;;15.08;99.19;101542.91;2568268;30;137896;-39
2021/08/30 05:51:23;;;;;;;24.20;14.40;;;16.40;99.90;;;15.07;99.02;101546.72;2569034;30;138467;-39
2021/08/30 05:53:50;;;;;;;24.38;14.68;;;16.40;99.90;;;15.09;99.09;101544.59;2566196;30;137592;-39
2021/08/30 05:56:18;;;;;;;24.58;14.52;;;16.30;99.90;;;15.10;99.91;101550.94;2569631;30;138327;-38
2021/08/30 05:58:45;;;;;;;20.50;13.75;;;16.40;99.90;;;15.10;100.00;101542.72;2566683;30;138469;-39
2021/08/30 06:01:13;;;;;;;23.10;14.63;;;16.40;99.90;;;15.14;100.00;101551.34;2569138;30;137941;-39
2021/08/30 06:03:41;;;;;;;26.50;14.82;;;16.40;99.90;;;15.17;100.00;101548.16;2569967;30;137136;-39
2021/08/30 06:06:08;;;;;;;;;;;16.40;99.90;;;15.20;100.00;101553.19;2567597;30;138998;-39
2021/08/30 06:08:36;;;;;;;24.25;15.35;;;16.50;99.90;;;15.20;100.00;101550.44;2567585;30;136838;-39
2021/08/30 06:11:03;;;;;;;25.60;15.40;;;16.50;99.90;;;15.21;100.00;101550.19;2568589;30;138478;-39
2021/08/30 06:13:31;;;;;;;24.20;15.25;;;16.50;99.90;;;15.23;100.00;101547.25;2565711;30;137447;-39
2021/08/30 06:15:59;;;;;;;26.25;16.05;;;16.50;99.90;;;15.27;100.00;101553.97;2568696;30;138266;-39
2021/08/30 06:18:26;;;;;;;;;;;16.50;99.90;;;15.29;100.00;101554.56;2568057;30;137380;-39
2021/08/30 06:20:54;;;;;;;29.15;17.20;;;16.60;99.90;;;15.25;100.00;101558.84;2568121;30;139263;-39
2021/08/30 06:23:21;;;;;;;30.23;17.95;;;16.60;99.90;;;15.29;100.00;101545.50;2568253;30;137326;-39
2021/08/30 06:25:49;;;;;;;34.40;19.27;;;16.60;99.90;;;15.31;100.00;101544.19;2567870;30;137571;-39
2021/08/30 06:28:17;;;;;;;36.30;20.25;;;16.60;99.90;;;15.28;100.00;101555.63;2567572;30;138464;-39
2021/08/30 06:30:44;;;;;;;32.13;19.15;;;16.60;99.90;;;15.26;100.00;101549.53;2572191;30;145109;-41
2021/08/30 06:33:12;;;;;;;31.35;19.08;;;16.60;99.90;;;15.33;100.00;101554.97;2566867;30;138159;-41
2021/08/30 06:35:42;;;;;;;31.58;18.75;;;16.60;99.90;;;15.39;100.00;101549.41;2569048;30;137427;-41
2021/08/30 06:38:12;;;;;;;28.65;17.35;;;16.60;99.90;;;15.42;100.00;101550.84;2569229;30;138351;-42
2021/08/30 06:40:40;;;;;;;32.40;19.45;;;16.70;99.90;;;15.50;100.00;101549.72;2567979;30;137278;-41
2021/08/30 06:43:07;;;;;;;;;;;16.70;99.90;;;15.49;100.00;101545.28;2569300;30;137667;-40
2021/08/30 06:45:35;;;;;;;31.42;19.50;;;16.70;99.90;;;15.47;100.00;101548.25;2567480;30;137095;-42
2021/08/30 06:48:03;;;;;;;33.13;19.48;;;16.70;99.90;;;15.48;100.00;101557.34;2566384;30;137485;-41
2021/08/30 06:50:30;;;;;;;;;;;16.70;99.90;;;15.48;100.00;101554.59;2569826;30;137327;-41
2021/08/30 06:52:58;;;;;;;29.35;18.42;;;16.70;99.90;;;15.47;100.00;101552.94;2568216;30;138043;-41
2021/08/30 06:55:26;;;;;;;31.42;19.35;;;16.70;99.90;;;15.51;100.00;101556.91;2568090;30;138066;-41
2021/08/30 06:57:53;;;;;;;33.75;18.52;;;16.80;99.90;;;15.48;100.00;101554.59;2569153;30;137707;-42
2021/08/30 07:00:21;;;;;;;29.58;18.17;;;16.80;99.90;;;15.48;100.00;101555.44;2568314;30;138446;-41
2021/08/30 07:02:48;;;;;;;26.33;17.58;;;16.80;99.90;;;15.49;100.00;101559.03;2568803;30;137094;-41
2021/08/30 07:05:16;;;;;;;29.45;18.65;;;16.80;99.90;;;15.53;100.00;101554.75;2566927;30;139338;-41
2021/08/30 07:07:44;;;;;;;28.90;18.77;;;16.80;99.90;;;15.55;100.00;101551.78;2568217;30;136725;-40
2021/08/30 07:10:11;;;;;;;30.60;17.77;;;16.80;99.90;;;15.56;100.00;101551.56;2568337;30;139026;-41
2021/08/30 07:12:39;;;;;;;29.80;19.10;;;16.80;99.90;;;15.63;100.00;101552.31;2569418;30;137548;-41
2021/08/30 07:15:07;;;;;;;;;;;16.90;99.90;;;15.56;100.00;101551.56;2566737;30;138562;-41
2021/08/30 07:17:35;;;;;;;29.50;17.92;;;16.80;99.90;;;15.66;100.00;101543.63;2567455;30;136840;-41
2021/08/30 07:20:04;;;;;;;29.48;18.80;;;16.90;99.90;;;15.71;100.00;101548.41;2568045;30;138511;-43
2021/08/30 07:22:31;;;;;;;28.35;18.05;;;16.90;99.90;;;15.78;100.00;101554.69;2568750;30;137704;-40
2021/08/30 07:24:59;;;;;;;28.10;18.95;;;17.00;99.90;;;15.89;100.00;101555.84;2568461;30;138294;-41
2021/08/30 07:27:27;;;;;;;26.40;18.27;;;17.00;99.90;;;15.95;100.00;101552.19;2568408;30;137831;-44
2021/08/30 07:29:54;;;;;;;27.48;17.80;;;17.10;99.90;;;16.06;100.00;101557.97;2568216;30;139385;-41
2021/08/30 07:32:22;;;;;;;32.10;20.10;;;17.20;99.90;;;16.23;100.00;101552.66;2567927;30;138361;-41
2021/08/30 07:34:49;;;;;;;27.77;17.33;;;17.30;99.90;;;16.27;100.00;101555.81;2568550;30;137834;-41
2021/08/30 07:37:17;;;;;;;24.70;17.13;;;17.40;99.90;;;16.33;100.00;101549.38;2566847;30;138510;-41
2021/08/30 07:39:44;;;;;;;30.60;18.33;;;17.40;99.90;;;16.35;99.35;101542.56;2568223;30;138451;-41
2021/08/30 07:42:12;;;;;;;27.42;17.27;;;17.50;99.90;;;16.40;97.69;101550.09;2567755;30;137158;-40
2021/08/30 07:44:39;;;;;;;22.92;15.00;;;17.60;99.90;;;16.43;96.85;101555.13;2567740;30;139403;-42
2021/08/30 07:47:07;;;;;;;23.48;14.95;;;17.60;99.90;;;16.47;96.50;101548.09;2568900;30;136818;-41
2021/08/30 07:49:35;;;;;;;;;;;17.60;99.90;;;16.57;96.82;101561.28;2567647;30;137706;-41
2021/08/30 07:52:03;;;;;;;27.30;16.45;;;17.70;99.90;;;16.66;95.77;101562.66;2567675;30;136760;-41
2021/08/30 07:54:30;;;;;;;25.30;16.30;;;17.80;99.90;;;16.73;95.55;101564.44;2568503;30;138057;-41
2021/08/30 07:56:58;;;;;;;25.40;15.57;;;17.80;99.90;;;16.80;95.36;101574.31;2567975;30;137533;-43
2021/08/30 07:59:26;;;;;;;24.20;15.30;;;17.90;99.90;;;16.73;92.19;101568.06;2569162;30;137606;-41
2021/08/30 08:01:53;;;;;;;21.15;14.45;;;17.90;99.90;;;16.77;92.18;101572.03;2568255;30;138516;-40
2021/08/30 08:04:21;;;;;;;;;;;17.90;99.90;;;16.75;92.39;101574.19;2568488;30;138238;-41
2021/08/30 08:06:49;;;;;;;20.98;13.82;;;17.90;99.90;;;16.70;92.04;101574.00;2567847;30;137137;-41
2021/08/30 08:09:16;;;;;;;22.00;14.45;;;17.90;99.90;;;16.61;91.54;101572.69;2565019;30;138446;-41
2021/08/30 08:11:44;;;;;;;18.88;13.43;;;17.80;99.90;;;16.61;92.89;101581.81;2566865;30;137656;-41
2021/08/30 08:14:13;;;;;;;21.17;13.95;;;17.80;99.90;;;16.51;90.92;101576.84;2568101;30;137156;-41
2021/08/30 08:16:41;;;;;;;19.58;13.77;;;17.80;99.90;;;16.50;92.30;101590.84;2566583;30;138326;-41
2021/08/30 08:19:08;;;;;;;20.42;13.30;;;17.70;99.90;;;16.46;92.30;101584.13;2567016;30;139365;-41
2021/08/30 08:21:36;;;;;;;22.33;13.98;;;17.70;99.90;;;16.43;92.41;101584.59;2568141;30;137872;-41
2021/08/30 08:24:06;;;;;;;20.05;13.27;;;17.70;99.90;;;16.41;92.72;101590.31;2568071;30;138374;-41
2021/08/30 08:26:34;;;;;;;20.25;13.00;;;17.60;99.90;;;16.48;93.90;101584.75;2567692;30;137610;-41
2021/08/30 08:29:03;;;;;;;21.00;13.65;;;17.70;99.90;;;16.57;92.58;101585.25;2568439;30;137250;-41
2021/08/30 08:31:31;;;;;;;22.02;13.35;;;17.70;99.90;;;16.65;93.95;101587.66;2568481;30;137600;-41
2021/08/30 08:33:58;;;;;;;;;;;17.80;99.90;;;16.76;94.50;101584.13;2566652;30;138395;-41
2021/08/30 08:36:26;;;;;;;18.98;12.77;;;17.90;99.90;;;16.94;94.46;101585.09;2568333;30;137106;-43
2021/08/30 08:38:54;;;;;;;21.25;12.48;;;18.00;99.90;;;16.97;92.23;101585.47;2568420;30;136735;-44
2021/08/30 08:41:21;;;;;;;17.85;11.57;;;18.10;99.90;;;16.96;88.86;101588.44;2567432;30;137485;-41
2021/08/30 08:43:56;;;;;;;17.70;11.68;;;18.10;99.90;;;17.00;89.56;101589.72;2567091;30;137790;-41
2021/08/30 08:46:25;;;;;;;18.45;11.88;;;18.20;99.90;;;17.04;88.97;101584.53;2565895;30;138300;-41
2021/08/30 08:48:56;;;;;;;19.80;12.30;;;18.20;99.90;;;17.20;91.41;101589.38;2568735;30;138115;-41
2021/08/30 08:51:24;;;;;;;18.30;13.00;;;18.30;99.90;;;17.30;89.37;101588.78;2566575;30;137837;-41
2021/08/30 08:53:52;;;;;;;19.65;12.05;;;18.40;99.90;;;17.31;88.18;101590.47;2567989;30;138456;-41
2021/08/30 08:56:27;;;;;;;20.85;11.80;;;18.40;99.90;;;17.37;89.85;101583.97;2566885;30;138681;-42
2021/08/30 08:58:55;;;;;;;18.45;11.95;;;18.50;99.90;;;17.27;89.21;101583.75;2568482;30;138358;-41
2021/08/30 09:01:27;;;;;;;21.10;11.38;;;18.50;99.90;;;17.27;87.94;101583.75;2566937;30;137591;-41
2021/08/30 09:03:56;;;;;;;17.92;12.10;;;18.50;99.90;;;17.24;87.31;101582.28;2567793;30;138188;-42
2021/08/30 09:06:24;;;;;;;17.40;11.10;;;18.50;99.90;;;17.11;86.58;101585.28;2566896;30;136975;-40
2021/08/30 09:09:17;;;;;;;17.92;11.70;;;18.30;99.90;;;17.11;88.60;101588.06;2566577;30;139350;-41
2021/08/30 09:11:53;;;;;;;18.90;12.57;;;18.30;99.90;;;17.13;89.26;101588.66;2567529;30;137479;-40
2021/08/30 09:14:23;;;;;;;20.17;13.30;;;18.40;99.90;;;17.02;88.08;101594.97;2566034;30;137198;-42
2021/08/30 09:17:10;;;;;;;17.80;11.90;;;18.30;99.90;;;16.95;88.26;101581.25;2567774;30;136990;-40
2021/08/30 09:19:41;;;;;;;18.35;11.50;;;18.20;99.90;;;17.07;89.56;101593.19;2565754;30;137273;-41
2021/08/30 09:22:11;;;;;;;20.05;12.05;;;18.20;99.90;;;17.09;88.99;101588.28;2568279;30;137144;-41
2021/08/30 09:24:39;;;;;;;21.73;12.63;;;18.30;99.90;;;17.39;92.21;101589.25;2569041;30;138163;-41
2021/08/30 09:27:11;;;;;;;18.83;12.50;;;18.40;99.90;;;17.56;89.71;101596.78;2568300;30;137631;-41
2021/08/30 09:29:43;;;;;;;20.08;12.85;;;18.60;99.90;;;17.65;86.69;101601.72;2566845;30;138357;-41
2021/08/30 09:32:15;;;;;;;17.83;11.65;;;18.70;99.90;;;17.81;88.63;101604.81;2567690;30;136954;-42
2021/08/30 09:34:53;;;;;;;18.38;12.13;;;18.80;99.90;;;17.87;85.05;101606.59;2567275;30;137355;-41
2021/08/30 09:37:26;;;;;;;16.38;11.68;;;18.90;99.90;;;17.93;84.89;101604.81;2568195;30;137065;-41
2021/08/30 09:39:59;;;;;;;18.13;11.88;;;19.00;99.90;;;18.09;86.56;101601.28;2566016;30;137179;-41
2021/08/30 09:42:28;;;;;;;18.38;10.95;;;19.10;99.90;;;18.24;85.54;101591.66;2567236;30;137520;-41
2021/08/30 09:45:12;;;;;;;16.08;10.45;;;19.20;99.90;;;18.32;82.53;101598.72;2568142;30;137074;-41
2021/08/30 09:48:00;;;;;;;17.67;10.93;;;19.40;99.90;;;18.46;83.21;101600.09;2565659;30;137085;-41
2021/08/30 09:50:32;;;;;;;16.52;10.40;;;19.40;99.90;;;18.52;81.13;101598.28;2567618;30;138782;-41
2021/08/30 09:53:02;;;;;;;15.13;10.45;;;19.50;99.90;;;18.26;80.43;101575.69;2567828;30;137228;-43
2021/08/30 09:55:32;;;;;;;14.65;10.25;;;19.50;99.90;;;18.35;81.92;101592.69;2567991;30;137527;-43
2021/08/30 09:58:00;;;;;;;15.38;10.15;;;19.50;99.90;;;18.35;82.68;101596.28;2567830;30;137756;-43
2021/08/30 10:00:29;;;;;;;14.98;10.50;;;19.50;99.90;;;18.32;82.00;101594.03;2566698;30;139234;-41
2021/08/30 10:03:02;;;;;;;14.70;9.77;;;19.40;99.90;;;18.28;82.22;101592.84;2568145;30;137021;-41
2021/08/30 10:05:31;;;;;;;14.52;9.05;;;19.40;99.90;;;18.25;83.10;101585.88;2567526;30;139186;-41
2021/08/30 10:08:01;;;;;;;14.02;9.75;;;19.40;99.90;;;18.24;84.00;101592.47;2569130;30;137817;-41
2021/08/30 10:10:29;;;;;;;14.60;9.23;;;19.40;99.90;;;18.10;80.95;101591.09;2568204;30;137626;-40
2021/08/30 10:13:00;;;;;;;15.63;9.43;;;19.30;99.90;;;18.06;83.58;101584.41;2567123;30;137725;-41
2021/08/30 10:15:29;;;;;;;15.05;9.93;;;19.30;99.90;;;18.15;84.38;101588.44;2568600;30;137154;-41
2021/08/30 10:17:57;;;;;;;15.98;10.05;;;19.30;99.90;;;18.16;83.29;101578.22;2568093;30;137468;-42
2021/08/30 10:20:33;;;;;;;14.43;9.23;;;19.30;99.90;;;18.15;82.82;101582.91;2567973;30;137884;-40
2021/08/30 10:23:09;;;;;;;14.13;9.38;;;19.30;99.90;;;18.11;82.79;101577.03;2569797;30;137632;-40
2021/08/30 10:25:40;;;;;;;12.68;9.40;;;19.30;99.90;;;18.13;85.02;101571.28;2566796;30;138014;-41
2021/08/30 10:28:10;;;;;;;13.07;8.65;;;19.20;99.90;;;18.02;82.58;101574.91;2569202;30;137518;-41
2021/08/30 10:30:53;;;;;;;12.80;8.77;;;19.20;99.90;;;17.94;83.64;101581.63;2568338;30;138439;-41
2021/08/30 10:33:24;;;;;;;15.88;9.50;;;19.20;99.90;;;17.91;85.35;101580.19;2569138;30;137550;-41
2021/08/30 10:35:52;;;;;;;13.38;9.52;;;19.10;99.90;;;17.80;85.73;101581.06;2567974;30;138729;-41
2021/08/30 10:38:21;;;;;;;13.70;8.80;;;19.00;99.90;;;17.71;86.06;101582.50;2569097;30;137342;-41